createdAt,value
2022-08-12T00:00:42.959Z,17.37
2022-08-12T00:03:27.634Z,17.29
2022-08-12T00:06:12.976Z,17.24
2022-08-12T00:08:58.334Z,17.21
2022-08-12T00:11:45.094Z,17.14
2022-08-12T00:14:30.539Z,17.07
2022-08-12T00:17:15.362Z,17.02
2022-08-12T00:20:00.211Z,16.93
2022-08-12T00:22:46.620Z,16.84
2022-08-12T00:26:21.798Z,16.76
2022-08-12T00:28:59.284Z,16.67
2022-08-12T00:31:44.183Z,16.60
2022-08-12T00:34:35.080Z,16.49
2022-08-12T00:37:19.881Z,16.40
2022-08-12T00:40:06.489Z,16.30
2022-08-12T00:42:40.277Z,16.25
2022-08-12T00:45:07.224Z,16.20
2022-08-12T00:47:34.743Z,16.13
2022-08-12T00:50:01.665Z,16.12
2022-08-12T00:52:27.841Z,16.11
2022-08-12T00:54:57.424Z,16.09
2022-08-12T00:57:26.405Z,16.02
2022-08-12T01:00:01.254Z,15.98
2022-08-12T01:02:30.987Z,15.94
2022-08-12T01:05:23.262Z,15.90
2022-08-12T01:08:10.811Z,15.84
2022-08-12T01:10:58.730Z,15.79
2022-08-12T01:13:25.629Z,15.77
2022-08-12T01:15:59.402Z,15.76
2022-08-12T01:18:30.217Z,15.74
2022-08-12T01:21:24.780Z,15.71
2022-08-12T01:24:30.285Z,15.68
2022-08-12T01:26:57.330Z,15.64
2022-08-12T01:29:28.570Z,15.58
2022-08-12T01:32:00.626Z,15.54
2022-08-12T01:34:36.356Z,15.51
2022-08-12T01:37:05.213Z,15.46
2022-08-12T01:40:35.179Z,15.41
2022-08-12T01:42:50.448Z,15.35
2022-08-12T01:45:23.002Z,15.31
2022-08-12T01:48:14.948Z,15.25
2022-08-12T01:51:06.201Z,15.16
2022-08-12T01:54:04.723Z,15.09
2022-08-12T01:56:43.675Z,15.04
2022-08-12T01:59:33.590Z,14.97
2022-08-12T02:02:04.947Z,14.92
2022-08-12T02:05:19.677Z,14.88
2022-08-12T02:08:19.149Z,14.83
2022-08-12T02:11:18.703Z,14.77
2022-08-12T02:14:23.869Z,14.72
2022-08-12T02:16:50.690Z,14.68
2022-08-12T02:19:25.729Z,14.66
2022-08-12T02:22:05.830Z,14.58
2022-08-12T02:24:34.201Z,14.57
2022-08-12T02:27:01.910Z,14.53
2022-08-12T02:29:28.712Z,14.46
2022-08-12T02:31:55.362Z,14.45
2022-08-12T02:34:23.120Z,14.43
2022-08-12T02:36:49.949Z,14.40
2022-08-12T02:39:16.352Z,14.37
2022-08-12T02:41:45.995Z,14.32
2022-08-12T02:44:15.394Z,14.30
2022-08-12T02:46:50.213Z,14.24
2022-08-12T02:49:29.561Z,14.21
2022-08-12T02:51:56.387Z,14.20
2022-08-12T02:54:23.310Z,14.18
2022-08-12T02:56:50.962Z,14.16
2022-08-12T02:59:21.247Z,14.12
2022-08-12T03:01:56.068Z,14.09
2022-08-12T03:04:41.461Z,14.07
2022-08-12T03:07:42.054Z,14.03
2022-08-12T03:10:36.695Z,14.00
2022-08-12T03:13:07.434Z,13.97
2022-08-12T03:15:34.797Z,13.95
2022-08-12T03:18:24.101Z,13.93
2022-08-12T03:20:53.855Z,13.92
2022-08-12T03:23:30.005Z,13.89
2022-08-12T03:25:59.159Z,13.87
2022-08-12T03:28:44.262Z,13.85
2022-08-12T03:31:10.907Z,13.82
2022-08-12T03:33:39.931Z,13.79
2022-08-12T03:36:08.688Z,13.76
2022-08-12T03:38:38.653Z,13.74
2022-08-12T03:41:28.099Z,13.73
2022-08-12T03:44:35.355Z,13.72
2022-08-12T03:47:30.904Z,13.72
2022-08-12T03:50:17.206Z,13.73
2022-08-12T03:53:02.043Z,13.74
2022-08-12T03:55:46.887Z,13.74
2022-08-12T03:58:32.787Z,13.76
2022-08-12T04:00:59.009Z,13.77
2022-08-12T04:03:44.213Z,13.79
2022-08-12T04:06:10.589Z,13.84
2022-08-12T04:08:38.959Z,13.85
2022-08-12T04:11:26.223Z,13.90
2022-08-12T04:14:05.804Z,13.97
2022-08-12T04:16:35.186Z,13.98
2022-08-12T04:19:02.387Z,14.00
2022-08-12T04:21:28.777Z,14.08
2022-08-12T04:23:55.389Z,14.12
2022-08-12T04:26:21.629Z,14.14
2022-08-12T04:28:47.779Z,14.19
2022-08-12T04:31:14.375Z,14.29
2022-08-12T04:33:42.559Z,14.34
2022-08-12T04:36:09.438Z,14.40
2022-08-12T04:38:36.592Z,14.44
2022-08-12T04:41:03.965Z,14.48
2022-08-12T04:43:54.536Z,14.53
2022-08-12T04:46:19.540Z,14.58
2022-08-12T04:48:49.151Z,14.68
2022-08-12T04:51:16.379Z,14.75
2022-08-12T04:53:43.625Z,14.82
2022-08-12T04:56:12.840Z,14.90
2022-08-12T04:58:39.950Z,14.99
2022-08-12T05:01:07.812Z,15.08
2022-08-12T05:03:46.355Z,15.17
2022-08-12T05:06:18.898Z,15.31
2022-08-12T05:08:54.902Z,15.44
2022-08-12T05:11:25.115Z,15.56
2022-08-12T05:13:56.508Z,15.68
2022-08-12T11:23:25.388Z,27.74
2022-08-12T11:26:01.422Z,27.78
2022-08-12T11:28:34.522Z,27.86
2022-08-12T11:31:04.173Z,27.99
2022-08-12T11:34:04.546Z,28.21
2022-08-12T11:36:17.461Z,28.44
2022-08-12T11:38:43.714Z,28.75
2022-08-12T11:41:28.135Z,28.82
2022-08-12T11:43:59.063Z,28.94
2022-08-12T11:46:25.466Z,28.90
2022-08-12T11:48:52.654Z,28.73
2022-08-12T11:51:19.717Z,28.76
2022-08-12T11:53:59.591Z,28.86
2022-08-12T11:56:38.328Z,29.28
2022-08-12T12:02:01.174Z,29.67
2022-08-12T12:04:29.861Z,29.48
2022-08-12T12:06:56.625Z,29.27
2022-08-12T12:09:52.434Z,29.00
2022-08-12T12:12:19.874Z,28.54
2022-08-12T12:14:47.602Z,28.29
2022-08-12T12:17:21.242Z,28.17
2022-08-12T12:19:48.279Z,28.15
2022-08-12T12:22:15.528Z,28.22
2022-08-12T12:24:45.335Z,28.23
2022-08-12T12:27:11.463Z,28.09
2022-08-12T12:30:19.470Z,28.04
2022-08-12T12:32:31.045Z,28.02
2022-08-12T12:35:14.570Z,28.15
2022-08-12T12:38:05.611Z,28.35
2022-08-12T12:40:44.019Z,28.78
2022-08-12T12:43:11.290Z,29.21
2022-08-12T12:45:39.400Z,29.30
2022-08-12T12:48:12.786Z,29.26
2022-08-12T12:51:12.089Z,29.39
2022-08-12T12:54:06.982Z,29.59
2022-08-12T12:56:34.732Z,29.77
2022-08-12T12:59:02.212Z,29.77
2022-08-12T13:01:31.079Z,29.59
2022-08-12T13:04:02.642Z,29.56
2022-08-12T13:06:32.077Z,29.36
2022-08-12T13:09:02.461Z,29.18
2022-08-12T13:11:39.244Z,29.27
2022-08-12T13:14:12.869Z,29.47
2022-08-12T13:16:54.643Z,29.81
2022-08-12T13:19:25.105Z,30.27
2022-08-12T13:22:20.351Z,30.76
2022-08-12T13:24:55.833Z,30.84
2022-08-12T13:27:35.486Z,31.06
2022-08-12T13:30:06.615Z,31.07
2022-08-12T13:32:37.349Z,31.31
2022-08-12T13:35:19.345Z,31.34
2022-08-12T13:37:55.686Z,31.61
2022-08-12T13:40:24.687Z,31.52
2022-08-12T13:42:53.283Z,31.38
2022-08-12T13:45:19.574Z,31.72
2022-08-12T13:47:59.991Z,31.59
2022-08-12T13:50:33.888Z,30.82
2022-08-12T13:53:06.302Z,30.30
2022-08-12T13:55:49.852Z,29.98
2022-08-12T13:58:26.077Z,29.79
2022-08-12T14:00:53.596Z,29.71
2022-08-12T14:03:21.800Z,29.92
2022-08-12T14:05:59.493Z,30.18
2022-08-12T14:08:25.713Z,30.43
2022-08-12T14:11:00.734Z,30.61
2022-08-12T14:14:03.800Z,30.64
2022-08-12T14:16:46.929Z,30.66
2022-08-12T14:19:04.922Z,30.40
2022-08-12T14:21:37.510Z,30.21
2022-08-12T14:24:23.011Z,30.07
2022-08-12T14:26:53.327Z,30.20
2022-08-12T14:29:21.705Z,30.64
2022-08-12T14:32:07.715Z,30.88
2022-08-12T14:34:44.134Z,31.03
2022-08-12T14:37:13.009Z,31.41
2022-08-12T14:39:56.519Z,31.95
2022-08-12T14:42:22.758Z,32.40
2022-08-12T14:44:59.351Z,32.37
2022-08-12T14:47:27.154Z,32.09
2022-08-12T14:50:40.856Z,32.14
2022-08-12T14:55:43.442Z,32.19
2022-08-12T14:58:25.198Z,32.95
2022-08-12T15:01:11.315Z,32.47
2022-08-12T15:03:52.386Z,32.24
2022-08-12T15:06:39.421Z,31.78
2022-08-12T15:09:06.919Z,31.74
2022-08-12T15:11:54.592Z,31.82
2022-08-12T15:14:20.290Z,31.78
2022-08-12T15:16:48.746Z,31.61
2022-08-12T15:20:11.701Z,31.33
2022-08-12T15:22:37.556Z,31.37
2022-08-12T15:24:48.844Z,31.76
2022-08-12T15:27:15.014Z,32.28
2022-08-12T15:29:48.365Z,32.64
2022-08-12T15:32:30.500Z,32.71
2022-08-12T15:35:00.665Z,32.89
2022-08-12T15:38:10.519Z,33.02
2022-08-12T15:40:13.551Z,32.74
2022-08-12T15:42:39.730Z,32.34
2022-08-12T15:45:08.688Z,32.53
2022-08-12T15:47:49.776Z,32.48
2022-08-12T15:50:18.163Z,32.27
2022-08-12T15:52:50.839Z,32.16
2022-08-12T15:55:18.181Z,32.32
2022-08-12T15:57:53.838Z,32.40
2022-08-12T16:00:32.152Z,32.25
2022-08-12T16:03:01.852Z,32.37
2022-08-12T16:06:13.066Z,32.56
2022-08-12T16:08:27.423Z,32.58
2022-08-12T16:10:54.194Z,32.08
2022-08-12T16:13:32.496Z,31.54
2022-08-12T16:16:03.691Z,30.83
2022-08-12T16:18:35.691Z,30.47
2022-08-12T16:21:04.827Z,30.27
2022-08-12T16:23:51.251Z,30.01
2022-08-12T16:26:20.412Z,29.72
2022-08-12T16:29:14.593Z,29.84
2022-08-12T16:31:41.902Z,30.06
2022-08-12T16:34:10.707Z,30.34
2022-08-12T16:36:51.646Z,30.43
2022-08-12T16:39:19.611Z,30.62
2022-08-12T16:41:46.305Z,30.86
2022-08-12T16:44:12.437Z,31.09
2022-08-12T16:46:57.856Z,30.91
2022-08-12T16:49:24.762Z,31.03
2022-08-12T16:51:52.330Z,30.82
2022-08-12T16:54:26.625Z,30.74
2022-08-12T16:57:05.597Z,30.50
2022-08-12T16:59:53.662Z,30.27
2022-08-12T17:02:33.880Z,29.94
2022-08-12T17:05:03.415Z,29.86
2022-08-12T17:07:36.181Z,29.92
2022-08-12T17:10:05.636Z,29.87
2022-08-12T17:12:31.765Z,29.90
2022-08-12T17:14:58.193Z,29.78
2022-08-12T17:17:39.233Z,29.65
2022-08-12T17:20:36.087Z,29.80
2022-08-12T17:22:56.529Z,29.74
2022-08-12T17:25:24.483Z,29.60
2022-08-12T17:27:57.316Z,29.44
2022-08-12T17:30:24.561Z,29.46
2022-08-12T17:32:53.466Z,29.59
2022-08-12T17:35:37.215Z,29.77
2022-08-12T17:38:06.889Z,29.68
2022-08-12T17:40:35.826Z,29.53
2022-08-12T17:43:52.140Z,29.15
2022-08-12T17:45:56.174Z,28.87
2022-08-12T17:48:35.008Z,28.67
2022-08-12T17:51:15.107Z,28.35
2022-08-12T17:54:11.203Z,28.16
2022-08-12T17:56:31.920Z,27.95
2022-08-12T17:58:59.094Z,27.84
2022-08-12T18:01:25.458Z,27.68
2022-08-12T18:04:04.664Z,27.58
2022-08-12T18:06:44.279Z,27.40
2022-08-12T18:09:15.523Z,27.20
2022-08-12T18:12:03.748Z,27.02
2022-08-12T18:14:37.063Z,26.83
2022-08-12T18:17:08.276Z,26.66
2022-08-12T18:20:05.141Z,26.51
2022-08-12T18:22:30.344Z,26.34
2022-08-12T18:25:04.784Z,26.22
2022-08-12T18:27:44.302Z,26.08
2022-08-12T18:30:16.465Z,25.91
2022-08-12T18:33:04.321Z,25.76
2022-08-12T18:35:47.474Z,25.65
2022-08-12T18:38:20.453Z,25.49
2022-08-12T18:41:09.630Z,25.35
2022-08-12T18:43:57.264Z,25.18
2022-08-12T18:46:32.286Z,25.01
2022-08-12T18:49:17.995Z,24.85
2022-08-12T18:51:55.157Z,24.68
2022-08-12T18:54:35.015Z,24.48
2022-08-12T18:57:16.417Z,24.31
2022-08-12T19:00:00.683Z,24.13
2022-08-12T19:02:28.916Z,23.98
2022-08-12T19:04:57.647Z,23.85
2022-08-12T19:07:29.765Z,23.73
2022-08-12T19:10:13.002Z,23.57
2022-08-12T19:12:59.130Z,23.48
2022-08-12T19:15:27.224Z,23.38
2022-08-12T19:18:02.459Z,23.31
2022-08-12T19:20:30.066Z,23.23
2022-08-12T19:22:59.694Z,23.17
2022-08-12T19:25:59.548Z,23.10
2022-08-12T19:28:29.388Z,23.01
2022-08-12T19:31:15.574Z,22.92
2022-08-12T19:34:06.525Z,22.87
2022-08-12T19:36:31.387Z,22.81
2022-08-12T19:39:00.426Z,22.80
2022-08-12T19:41:43.016Z,22.79
2022-08-12T19:44:16.750Z,22.75
2022-08-12T19:46:51.935Z,22.74
2022-08-12T19:49:22.307Z,22.73
2022-08-12T19:51:52.059Z,22.67
2022-08-12T19:54:23.430Z,22.59
2022-08-12T19:56:57.624Z,22.48
2022-08-12T19:59:43.001Z,22.40
2022-08-12T20:02:33.013Z,22.30
2022-08-12T20:06:05.525Z,22.21
2022-08-12T20:07:57.100Z,22.13
2022-08-12T20:10:35.193Z,22.02
2022-08-12T20:13:17.581Z,21.93
2022-08-12T20:15:45.751Z,21.86
2022-08-12T20:18:43.942Z,21.80
2022-08-12T20:21:00.391Z,21.73
2022-08-12T20:23:50.219Z,21.67
2022-08-12T20:26:16.011Z,21.59
2022-08-12T20:28:42.808Z,21.56
2022-08-12T20:31:08.978Z,21.47
2022-08-12T20:33:50.594Z,21.38
2022-08-12T20:36:41.031Z,21.31
2022-08-12T20:39:37.066Z,21.21
2022-08-12T20:41:59.003Z,21.12
2022-08-12T20:44:26.761Z,21.00
2022-08-12T20:46:58.265Z,20.92
2022-08-12T20:49:24.642Z,20.83
2022-08-12T20:51:56.106Z,20.77
2022-08-12T20:54:22.833Z,20.70
2022-08-12T20:57:01.032Z,20.63
2022-08-12T20:59:31.758Z,20.57
2022-08-12T21:01:58.737Z,20.58
2022-08-12T21:04:49.621Z,20.54
2022-08-12T21:07:17.127Z,20.45
2022-08-12T21:09:51.243Z,20.40
2022-08-12T21:12:27.286Z,20.33
2022-08-12T21:15:16.964Z,20.24
2022-08-12T21:18:00.742Z,20.15
2022-08-12T21:20:32.639Z,20.07
2022-08-12T21:22:58.903Z,20.01
2022-08-12T21:25:25.571Z,19.99
2022-08-12T21:28:05.763Z,19.98
2022-08-12T21:30:34.207Z,19.94
2022-08-12T21:33:04.775Z,19.89
2022-08-12T21:35:40.110Z,19.85
2022-08-12T21:38:08.430Z,19.84
2022-08-12T21:40:37.624Z,19.82
2022-08-12T21:43:19.736Z,19.80
2022-08-12T21:46:01.125Z,19.79
2022-08-12T21:48:27.976Z,19.80
2022-08-12T21:50:56.133Z,19.79
2022-08-12T21:53:22.766Z,19.79
2022-08-12T21:56:09.303Z,19.81
2022-08-12T21:58:37.379Z,19.76
2022-08-12T22:01:04.154Z,19.70
2022-08-12T22:04:04.040Z,19.65
2022-08-12T22:06:43.812Z,19.59
2022-08-12T22:09:16.129Z,19.57
2022-08-12T22:11:56.108Z,19.57
2022-08-12T22:14:26.117Z,19.52
2022-08-12T22:16:54.921Z,19.46
2022-08-12T22:19:22.907Z,19.44
2022-08-12T22:21:54.754Z,19.42
2022-08-12T22:24:26.402Z,19.42
2022-08-12T22:26:55.910Z,19.41
2022-08-12T22:29:41.461Z,19.38
2022-08-12T22:32:07.811Z,19.35
2022-08-12T22:34:38.053Z,19.34
2022-08-12T22:37:05.782Z,19.31
2022-08-12T22:39:37.815Z,19.31
2022-08-12T22:42:30.746Z,19.26
2022-08-12T22:45:16.406Z,19.24
2022-08-12T22:47:55.420Z,19.19
2022-08-12T22:50:27.281Z,19.14
2022-08-12T22:53:15.151Z,19.08
2022-08-12T22:56:00.002Z,19.00
2022-08-12T22:58:31.635Z,18.93
2022-08-12T23:00:58.442Z,18.90
2022-08-12T23:03:49.006Z,18.87
2022-08-12T23:06:16.721Z,18.85
2022-08-12T23:08:43.591Z,18.83
2022-08-12T23:11:09.721Z,18.77
2022-08-12T23:13:57.180Z,18.71
2022-08-12T23:16:30.832Z,18.65
2022-08-12T23:19:09.681Z,18.61
2022-08-12T23:22:06.737Z,18.57
2022-08-12T23:24:36.249Z,18.53
2022-08-12T23:27:22.192Z,18.51
2022-08-12T23:29:59.382Z,18.49
2022-08-12T23:32:36.469Z,18.46
2022-08-12T23:35:22.447Z,18.45
2022-08-12T23:37:53.967Z,18.45
2022-08-12T23:40:22.523Z,18.44
2022-08-12T23:42:50.753Z,18.43
2022-08-12T23:45:20.598Z,18.37
2022-08-12T23:48:00.545Z,18.36
2022-08-12T23:50:34.603Z,18.35
2022-08-12T23:53:02.696Z,18.33
2022-08-12T23:55:34.095Z,18.31
2022-08-12T23:58:21.276Z,18.28
